sensor_id;sensor_type;location;lat;lon;timestamp;pressure;altitude;pressure_sealevel;temperature;humidity
41264;BME280;26998;48.714;9.414;2023-03-24T00:00:21;98337.78;;;11.95;100.00
41264;BME280;26998;48.714;9.414;2023-03-24T00:02:49;98353.28;;;11.93;100.00
41264;BME280;26998;48.714;9.414;2023-03-24T00:05:19;98362.56;;;11.91;100.00
41264;BME280;26998;48.714;9.414;2023-03-24T00:07:46;98394.91;;;11.89;100.00
41264;BME280;26998;48.714;9.414;2023-03-24T00:10:15;98394.31;;;11.87;100.00
41264;BME280;26998;48.714;9.414;2023-03-24T00:12:43;98383.16;;;11.90;100.00
41264;BME280;26998;48.714;9.414;2023-03-24T00:15:13;98424.78;;;11.86;100.00
41264;BME280;26998;48.714;9.414;2023-03-24T00:17:40;98427.69;;;11.85;100.00
41264;BME280;26998;48.714;9.414;2023-03-24T00:20:14;98443.75;;;11.85;100.00
41264;BME280;26998;48.714;9.414;2023-03-24T00:22:43;98542.44;;;11.68;100.00
41264;BME280;26998;48.714;9.414;2023-03-24T00:25:10;98551.56;;;11.60;100.00
41264;BME280;26998;48.714;9.414;2023-03-24T00:27:37;98541.03;;;11.59;100.00
41264;BME280;26998;48.714;9.414;2023-03-24T00:30:05;98532.00;;;11.60;100.00
41264;BME280;26998;48.714;9.414;2023-03-24T00:32:33;98534.84;;;11.65;100.00
41264;BME280;26998;48.714;9.414;2023-03-24T00:35:00;98546.59;;;11.64;100.00
41264;BME280;26998;48.714;9.414;2023-03-24T00:37:27;98575.28;;;11.50;100.00
41264;BME280;26998;48.714;9.414;2023-03-24T00:39:53;98561.47;;;11.46;100.00
41264;BME280;26998;48.714;9.414;2023-03-24T00:42:20;98570.38;;;11.40;100.00
41264;BME280;26998;48.714;9.414;2023-03-24T00:44:46;98580.66;;;11.43;100.00
41264;BME280;26998;48.714;9.414;2023-03-24T00:47:13;98596.09;;;11.41;100.00
41264;BME280;26998;48.714;9.414;2023-03-24T00:49:39;98611.94;;;11.29;100.00
41264;BME280;26998;48.714;9.414;2023-03-24T00:52:17;98604.16;;;11.28;100.00
41264;BME280;26998;48.714;9.414;2023-03-24T00:54:43;98607.44;;;11.17;100.00
41264;BME280;26998;48.714;9.414;2023-03-24T00:57:11;98639.97;;;11.07;100.00
41264;BME280;26998;48.714;9.414;2023-03-24T00:59:39;98642.41;;;10.95;100.00
41264;BME280;26998;48.714;9.414;2023-03-24T01:02:05;98661.13;;;10.95;100.00
41264;BME280;26998;48.714;9.414;2023-03-24T01:04:32;98660.91;;;10.90;100.00
41264;BME280;26998;48.714;9.414;2023-03-24T01:06:58;98687.66;;;10.83;100.00
41264;BME280;26998;48.714;9.414;2023-03-24T01:09:25;98697.94;;;10.80;100.00
41264;BME280;26998;48.714;9.414;2023-03-24T01:11:51;98711.09;;;10.75;100.00
41264;BME280;26998;48.714;9.414;2023-03-24T01:14:17;98728.38;;;10.72;100.00
41264;BME280;26998;48.714;9.414;2023-03-24T01:16:44;98737.38;;;10.64;100.00
41264;BME280;26998;48.714;9.414;2023-03-24T01:19:10;98736.53;;;10.57;100.00
41264;BME280;26998;48.714;9.414;2023-03-24T01:21:38;98740.44;;;10.55;100.00
41264;BME280;26998;48.714;9.414;2023-03-24T01:24:05;98757.69;;;10.52;100.00
41264;BME280;26998;48.714;9.414;2023-03-24T01:26:31;98776.19;;;10.47;100.00
41264;BME280;26998;48.714;9.414;2023-03-24T01:28:58;98772.47;;;10.48;100.00
41264;BME280;26998;48.714;9.414;2023-03-24T01:31:25;98769.81;;;10.48;100.00
41264;BME280;26998;48.714;9.414;2023-03-24T01:33:52;98758.88;;;10.43;100.00
41264;BME280;26998;48.714;9.414;2023-03-24T01:36:18;98771.81;;;10.39;100.00
41264;BME280;26998;48.714;9.414;2023-03-24T01:38:45;98777.13;;;10.33;100.00
41264;BME280;26998;48.714;9.414;2023-03-24T01:41:12;98784.91;;;10.28;100.00
41264;BME280;26998;48.714;9.414;2023-03-24T01:43:38;98786.31;;;10.24;100.00
41264;BME280;26998;48.714;9.414;2023-03-24T01:46:17;98804.81;;;10.25;100.00
41264;BME280;26998;48.714;9.414;2023-03-24T01:48:46;98812.47;;;10.28;100.00
41264;BME280;26998;48.714;9.414;2023-03-24T01:51:27;98811.22;;;10.31;100.00
41264;BME280;26998;48.714;9.414;2023-03-24T01:54:00;98801.28;;;10.25;100.00
41264;BME280;26998;48.714;9.414;2023-03-24T01:56:33;98796.44;;;10.28;100.00
41264;BME280;26998;48.714;9.414;2023-03-24T01:59:04;98797.88;;;10.31;100.00
41264;BME280;26998;48.714;9.414;2023-03-24T02:01:32;98804.66;;;10.33;100.00
41264;BME280;26998;48.714;9.414;2023-03-24T02:04:00;98800.53;;;10.31;100.00
41264;BME280;26998;48.714;9.414;2023-03-24T02:06:29;98795.59;;;10.28;100.00
41264;BME280;26998;48.714;9.414;2023-03-24T02:08:58;98813.00;;;10.24;100.00
41264;BME280;26998;48.714;9.414;2023-03-24T02:11:28;98822.63;;;10.18;100.00
41264;BME280;26998;48.714;9.414;2023-03-24T02:13:55;98838.47;;;10.20;100.00
41264;BME280;26998;48.714;9.414;2023-03-24T02:16:32;98826.75;;;10.21;100.00
41264;BME280;26998;48.714;9.414;2023-03-24T02:19:27;98822.88;;;10.23;100.00
41264;BME280;26998;48.714;9.414;2023-03-24T02:30:31;98830.13;;;10.29;100.00
41264;BME280;26998;48.714;9.414;2023-03-24T02:41:46;98828.72;;;10.33;100.00
41264;BME280;26998;48.714;9.414;2023-03-24T02:44:29;98813.75;;;10.39;100.00
41264;BME280;26998;48.714;9.414;2023-03-24T02:47:05;98801.81;;;10.35;100.00
41264;BME280;26998;48.714;9.414;2023-03-24T02:52:28;98816.22;;;10.40;100.00
41264;BME280;26998;48.714;9.414;2023-03-24T02:55:19;98812.09;;;10.38;100.00
41264;BME280;26998;48.714;9.414;2023-03-24T02:57:56;98798.53;;;10.39;100.00
41264;BME280;26998;48.714;9.414;2023-03-24T03:00:33;98815.38;;;10.40;100.00
41264;BME280;26998;48.714;9.414;2023-03-24T03:03:05;98824.03;;;10.42;100.00
41264;BME280;26998;48.714;9.414;2023-03-24T03:05:37;98797.31;;;10.42;100.00
41264;BME280;26998;48.714;9.414;2023-03-24T03:08:08;98805.94;;;10.37;100.00
41264;BME280;26998;48.714;9.414;2023-03-24T03:10:40;98831.41;;;10.40;100.00
41264;BME280;26998;48.714;9.414;2023-03-24T03:16:15;98817.88;;;10.42;100.00
41264;BME280;26998;48.714;9.414;2023-03-24T03:18:48;98804.13;;;10.45;100.00
41264;BME280;26998;48.714;9.414;2023-03-24T03:21:20;98792.63;;;10.44;100.00
41264;BME280;26998;48.714;9.414;2023-03-24T03:23:56;98783.97;;;10.42;100.00
41264;BME280;26998;48.714;9.414;2023-03-24T03:26:25;98786.06;;;10.47;100.00
41264;BME280;26998;48.714;9.414;2023-03-24T03:28:57;98781.13;;;10.50;100.00
41264;BME280;26998;48.714;9.414;2023-03-24T03:31:51;98783.16;;;10.48;100.00
41264;BME280;26998;48.714;9.414;2023-03-24T03:34:51;98785.84;;;10.48;100.00
41264;BME280;26998;48.714;9.414;2023-03-24T03:37:55;98773.28;;;10.42;100.00
41264;BME280;26998;48.714;9.414;2023-03-24T03:40:30;98752.06;;;10.34;100.00
41264;BME280;26998;48.714;9.414;2023-03-24T03:42:58;98734.00;;;10.36;100.00
41264;BME280;26998;48.714;9.414;2023-03-24T03:45:24;98716.53;;;10.40;100.00
41264;BME280;26998;48.714;9.414;2023-03-24T03:47:51;98717.56;;;10.39;100.00
41264;BME280;26998;48.714;9.414;2023-03-24T03:50:17;98730.34;;;10.44;100.00
41264;BME280;26998;48.714;9.414;2023-03-24T03:52:44;98748.44;;;10.48;100.00
41264;BME280;26998;48.714;9.414;2023-03-24T03:55:12;98742.25;;;10.41;100.00
41264;BME280;26998;48.714;9.414;2023-03-24T03:57:40;98731.97;;;10.38;100.00
41264;BME280;26998;48.714;9.414;2023-03-24T04:00:13;98729.47;;;10.36;100.00
41264;BME280;26998;48.714;9.414;2023-03-24T04:03:09;98725.56;;;10.32;100.00
41264;BME280;26998;48.714;9.414;2023-03-24T04:05:45;98718.13;;;10.28;100.00
41264;BME280;26998;48.714;9.414;2023-03-24T04:08:18;98710.13;;;10.28;100.00
41264;BME280;26998;48.714;9.414;2023-03-24T04:13:24;98734.59;;;10.31;100.00
41264;BME280;26998;48.714;9.414;2023-03-24T04:16:19;98740.56;;;10.33;100.00
41264;BME280;26998;48.714;9.414;2023-03-24T04:19:04;98737.06;;;10.33;100.00
41264;BME280;26998;48.714;9.414;2023-03-24T04:24:58;98745.91;;;10.40;100.00
41264;BME280;26998;48.714;9.414;2023-03-24T04:27:39;98734.22;;;10.41;100.00
41264;BME280;26998;48.714;9.414;2023-03-24T04:30:44;98755.78;;;10.39;100.00
41264;BME280;26998;48.714;9.414;2023-03-24T04:33:17;98759.91;;;10.42;100.00
41264;BME280;26998;48.714;9.414;2023-03-24T04:35:47;98757.84;;;10.37;100.00
41264;BME280;26998;48.714;9.414;2023-03-24T04:38:19;98764.19;;;10.36;100.00
41264;BME280;26998;48.714;9.414;2023-03-24T04:40:47;98762.97;;;10.39;100.00
41264;BME280;26998;48.714;9.414;2023-03-24T04:43:17;98752.94;;;10.41;100.00
41264;BME280;26998;48.714;9.414;2023-03-24T04:45:45;98766.72;;;10.45;100.00
41264;BME280;26998;48.714;9.414;2023-03-24T04:48:13;98773.50;;;10.47;100.00
41264;BME280;26998;48.714;9.414;2023-03-24T04:50:42;98776.38;;;10.52;100.00
41264;BME280;26998;48.714;9.414;2023-03-24T04:53:10;98786.06;;;10.53;100.00
41264;BME280;26998;48.714;9.414;2023-03-24T04:58:16;98761.22;;;10.59;100.00
41264;BME280;26998;48.714;9.414;2023-03-24T05:00:44;98780.34;;;10.63;100.00
41264;BME280;26998;48.714;9.414;2023-03-24T05:03:12;98780.13;;;10.64;100.00
41264;BME280;26998;48.714;9.414;2023-03-24T05:05:41;98782.81;;;10.64;100.00
41264;BME280;26998;48.714;9.414;2023-03-24T05:08:08;98793.09;;;10.68;100.00
41264;BME280;26998;48.714;9.414;2023-03-24T05:10:35;98783.88;;;10.70;100.00
41264;BME280;26998;48.714;9.414;2023-03-24T05:13:05;98788.00;;;10.73;100.00
41264;BME280;26998;48.714;9.414;2023-03-24T05:15:32;98795.78;;;10.74;100.00
41264;BME280;26998;48.714;9.414;2023-03-24T05:17:59;98795.78;;;10.74;100.00
41264;BME280;26998;48.714;9.414;2023-03-24T05:20:25;98788.81;;;10.73;100.00
41264;BME280;26998;48.714;9.414;2023-03-24T05:22:52;98792.94;;;10.76;100.00
41264;BME280;26998;48.714;9.414;2023-03-24T05:25:19;98771.16;;;10.79;100.00
41264;BME280;26998;48.714;9.414;2023-03-24T05:27:46;98775.69;;;10.78;100.00
41264;BME280;26998;48.714;9.414;2023-03-24T05:30:14;98782.66;;;10.79;100.00
41264;BME280;26998;48.714;9.414;2023-03-24T05:32:40;98805.50;;;10.82;100.00
41264;BME280;26998;48.714;9.414;2023-03-24T05:35:08;98809.81;;;10.83;100.00
41264;BME280;26998;48.714;9.414;2023-03-24T05:37:34;98826.09;;;10.88;100.00
41264;BME280;26998;48.714;9.414;2023-03-24T05:40:01;98814.34;;;10.89;100.00
41264;BME280;26998;48.714;9.414;2023-03-24T05:42:27;98811.91;;;10.94;100.00
41264;BME280;26998;48.714;9.414;2023-03-24T05:44:54;98826.53;;;10.98;100.00
41264;BME280;26998;48.714;9.414;2023-03-24T05:47:20;98843.81;;;11.02;100.00
41264;BME280;26998;48.714;9.414;2023-03-24T05:49:47;98690.53;;;11.48;100.00
41264;BME280;26998;48.714;9.414;2023-03-24T05:52:13;98490.53;;;12.14;100.00
41264;BME280;26998;48.714;9.414;2023-03-24T05:54:40;98395.81;;;12.27;100.00
41264;BME280;26998;48.714;9.414;2023-03-24T05:57:10;98327.31;;;12.56;100.00
41264;BME280;26998;48.714;9.414;2023-03-24T05:59:37;98341.28;;;12.58;100.00
41264;BME280;26998;48.714;9.414;2023-03-24T06:02:03;98324.31;;;12.64;100.00
41264;BME280;26998;48.714;9.414;2023-03-24T06:04:30;98335.94;;;12.76;100.00
41264;BME280;26998;48.714;9.414;2023-03-24T06:06:57;98318.22;;;12.75;100.00
41264;BME280;26998;48.714;9.414;2023-03-24T06:09:28;98370.94;;;12.63;100.00
41264;BME280;26998;48.714;9.414;2023-03-24T06:11:55;98390.81;;;12.55;100.00
41264;BME280;26998;48.714;9.414;2023-03-24T06:14:21;98393.66;;;12.60;100.00
41264;BME280;26998;48.714;9.414;2023-03-24T06:16:48;98381.50;;;12.58;100.00
41264;BME280;26998;48.714;9.414;2023-03-24T06:19:15;98374.28;;;12.58;100.00
41264;BME280;26998;48.714;9.414;2023-03-24T06:21:42;98411.28;;;12.50;100.00
41264;BME280;26998;48.714;9.414;2023-03-24T06:24:09;98449.09;;;12.41;100.00
41264;BME280;26998;48.714;9.414;2023-03-24T06:26:36;98464.41;;;12.34;100.00
41264;BME280;26998;48.714;9.414;2023-03-24T06:29:02;98485.03;;;12.34;100.00
41264;BME280;26998;48.714;9.414;2023-03-24T06:31:29;98489.13;;;12.36;100.00
41264;BME280;26998;48.714;9.414;2023-03-24T06:33:56;98522.94;;;12.37;100.00
41264;BME280;26998;48.714;9.414;2023-03-24T06:36:22;98491.75;;;12.43;100.00
41264;BME280;26998;48.714;9.414;2023-03-24T06:38:49;98432.94;;;12.48;100.00
41264;BME280;26998;48.714;9.414;2023-03-24T06:41:16;98386.88;;;12.58;100.00
41264;BME280;26998;48.714;9.414;2023-03-24T06:43:43;98386.41;;;12.61;100.00
41264;BME280;26998;48.714;9.414;2023-03-24T06:46:09;98402.75;;;12.59;100.00
41264;BME280;26998;48.714;9.414;2023-03-24T06:48:36;98444.81;;;12.59;100.00
41264;BME280;26998;48.714;9.414;2023-03-24T06:51:03;98447.31;;;12.54;100.00
41264;BME280;26998;48.714;9.414;2023-03-24T06:53:29;98476.19;;;12.52;100.00
41264;BME280;26998;48.714;9.414;2023-03-24T06:55:56;98478.31;;;12.50;100.00
41264;BME280;26998;48.714;9.414;2023-03-24T06:58:23;98492.72;;;12.48;100.00
41264;BME280;26998;48.714;9.414;2023-03-24T07:00:49;98488.19;;;12.49;100.00
41264;BME280;26998;48.714;9.414;2023-03-24T07:03:16;98484.47;;;12.50;100.00
41264;BME280;26998;48.714;9.414;2023-03-24T07:05:43;98480.53;;;12.53;100.00
41264;BME280;26998;48.714;9.414;2023-03-24T07:08:10;98509.19;;;12.52;100.00
41264;BME280;26998;48.714;9.414;2023-03-24T07:10:40;98558.72;;;12.50;100.00
41264;BME280;26998;48.714;9.414;2023-03-24T07:13:07;98569.88;;;12.46;100.00
41264;BME280;26998;48.714;9.414;2023-03-24T07:15:34;98568.38;;;12.51;100.00
41264;BME280;26998;48.714;9.414;2023-03-24T07:18:01;98567.34;;;12.52;100.00
41264;BME280;26998;48.714;9.414;2023-03-24T07:20:27;98570.84;;;12.52;100.00
41264;BME280;26998;48.714;9.414;2023-03-24T07:22:55;98582.78;;;12.56;100.00
41264;BME280;26998;48.714;9.414;2023-03-24T07:25:22;98609.81;;;12.55;100.00
41264;BME280;26998;48.714;9.414;2023-03-24T07:27:52;98619.31;;;12.51;100.00
41264;BME280;26998;48.714;9.414;2023-03-24T07:30:19;98651.09;;;12.47;100.00
41264;BME280;26998;48.714;9.414;2023-03-24T07:32:58;98723.06;;;12.43;100.00
41264;BME280;26998;48.714;9.414;2023-03-24T07:35:25;98752.97;;;12.40;100.00
41264;BME280;26998;48.714;9.414;2023-03-24T07:37:51;98774.44;;;12.34;100.00
41264;BME280;26998;48.714;9.414;2023-03-24T07:40:18;98804.53;;;12.29;100.00
41264;BME280;26998;48.714;9.414;2023-03-24T07:42:44;98829.09;;;12.26;100.00
41264;BME280;26998;48.714;9.414;2023-03-24T07:45:11;98853.63;;;12.23;100.00
41264;BME280;26998;48.714;9.414;2023-03-24T07:47:42;98906.19;;;12.17;100.00
41264;BME280;26998;48.714;9.414;2023-03-24T07:50:11;98958.13;;;12.10;100.00
41264;BME280;26998;48.714;9.414;2023-03-24T07:52:41;98985.31;;;12.07;100.00
41264;BME280;26998;48.714;9.414;2023-03-24T07:55:11;99008.22;;;12.09;100.00
41264;BME280;26998;48.714;9.414;2023-03-24T07:57:44;99036.63;;;12.04;100.00
41264;BME280;26998;48.714;9.414;2023-03-24T08:00:11;99063.19;;;12.05;100.00
41264;BME280;26998;48.714;9.414;2023-03-24T08:02:38;99075.38;;;12.08;100.00
41264;BME280;26998;48.714;9.414;2023-03-24T08:05:05;99115.34;;;12.02;100.00
41264;BME280;26998;48.714;9.414;2023-03-24T08:07:31;99129.16;;;12.06;100.00
41264;BME280;26998;48.714;9.414;2023-03-24T08:09:58;99140.47;;;12.08;100.00
41264;BME280;26998;48.714;9.414;2023-03-24T08:12:24;99131.22;;;12.11;100.00
41264;BME280;26998;48.714;9.414;2023-03-24T08:14:51;99151.00;;;12.10;100.00
41264;BME280;26998;48.714;9.414;2023-03-24T08:17:17;99188.31;;;12.11;100.00
41264;BME280;26998;48.714;9.414;2023-03-24T08:19:44;99203.38;;;12.12;100.00
41264;BME280;26998;48.714;9.414;2023-03-24T08:22:24;99208.75;;;12.19;100.00
41264;BME280;26998;48.714;9.414;2023-03-24T08:24:51;99222.97;;;12.19;100.00
41264;BME280;26998;48.714;9.414;2023-03-24T08:27:17;99218.44;;;12.20;100.00
41264;BME280;26998;48.714;9.414;2023-03-24T08:29:44;99211.25;;;12.27;100.00
41264;BME280;26998;48.714;9.414;2023-03-24T08:32:11;99211.06;;;12.29;100.00
41264;BME280;26998;48.714;9.414;2023-03-24T08:34:37;99210.25;;;12.28;100.00
41264;BME280;26998;48.714;9.414;2023-03-24T08:37:04;99233.75;;;12.33;100.00
41264;BME280;26998;48.714;9.414;2023-03-24T08:39:30;99230.28;;;12.45;100.00
41264;BME280;26998;48.714;9.414;2023-03-24T08:41:56;99189.91;;;12.47;100.00
41264;BME280;26998;48.714;9.414;2023-03-24T08:44:23;99178.19;;;12.68;100.00
41264;BME280;26998;48.714;9.414;2023-03-24T08:46:49;99147.66;;;12.76;100.00
41264;BME280;26998;48.714;9.414;2023-03-24T08:49:16;99110.53;;;12.79;100.00
41264;BME280;26998;48.714;9.414;2023-03-24T08:51:43;99086.38;;;12.59;100.00
41264;BME280;26998;48.714;9.414;2023-03-24T08:54:10;99106.59;;;12.75;100.00
41264;BME280;26998;48.714;9.414;2023-03-24T08:56:37;99057.72;;;12.60;100.00
41264;BME280;26998;48.714;9.414;2023-03-24T08:59:05;99053.59;;;12.51;100.00
41264;BME280;26998;48.714;9.414;2023-03-24T09:01:32;99079.16;;;12.73;100.00
41264;BME280;26998;48.714;9.414;2023-03-24T09:03:59;99093.38;;;12.80;100.00
41264;BME280;26998;48.714;9.414;2023-03-24T09:06:25;99063.47;;;12.83;100.00
41264;BME280;26998;48.714;9.414;2023-03-24T09:08:53;99001.59;;;12.78;100.00
41264;BME280;26998;48.714;9.414;2023-03-24T09:11:21;98965.88;;;12.91;100.00
41264;BME280;26998;48.714;9.414;2023-03-24T09:13:47;98933.88;;;12.89;100.00
41264;BME280;26998;48.714;9.414;2023-03-24T09:16:15;98975.97;;;13.02;100.00
41264;BME280;26998;48.714;9.414;2023-03-24T09:18:43;98977.59;;;13.10;100.00
41264;BME280;26998;48.714;9.414;2023-03-24T09:21:09;98935.88;;;13.14;100.00
41264;BME280;26998;48.714;9.414;2023-03-24T09:23:36;98910.28;;;13.11;100.00
41264;BME280;26998;48.714;9.414;2023-03-24T09:26:03;98885.56;;;13.03;100.00
41264;BME280;26998;48.714;9.414;2023-03-24T09:28:30;98915.63;;;13.25;100.00
41264;BME280;26998;48.714;9.414;2023-03-24T09:30:59;98914.41;;;13.27;100.00
41264;BME280;26998;48.714;9.414;2023-03-24T09:33:26;98906.84;;;13.43;100.00
41264;BME280;26998;48.714;9.414;2023-03-24T09:35:57;98877.75;;;13.46;100.00
41264;BME280;26998;48.714;9.414;2023-03-24T09:38:26;98851.00;;;13.58;100.00
41264;BME280;26998;48.714;9.414;2023-03-24T09:40:55;98800.53;;;13.67;100.00
41264;BME280;26998;48.714;9.414;2023-03-24T09:43:29;98775.84;;;13.76;100.00
41264;BME280;26998;48.714;9.414;2023-03-24T09:45:58;98720.06;;;13.78;100.00
41264;BME280;26998;48.714;9.414;2023-03-24T09:48:33;98686.78;;;13.79;100.00
41264;BME280;26998;48.714;9.414;2023-03-24T09:51:15;98626.03;;;14.15;100.00
41264;BME280;26998;48.714;9.414;2023-03-24T09:53:49;98608.59;;;14.36;100.00
41264;BME280;26998;48.714;9.414;2023-03-24T09:56:23;98565.78;;;14.35;100.00
41264;BME280;26998;48.714;9.414;2023-03-24T09:59:02;98605.03;;;14.54;100.00
41264;BME280;26998;48.714;9.414;2023-03-24T10:01:29;98544.25;;;14.53;100.00
41264;BME280;26998;48.714;9.414;2023-03-24T10:03:57;98486.47;;;14.79;100.00
41264;BME280;26998;48.714;9.414;2023-03-24T10:06:31;98472.75;;;15.16;100.00
41264;BME280;26998;48.714;9.414;2023-03-24T10:09:16;98401.44;;;15.01;100.00
41264;BME280;26998;48.714;9.414;2023-03-24T10:14:39;98323.88;;;15.73;100.00
41264;BME280;26998;48.714;9.414;2023-03-24T10:17:28;98293.69;;;15.70;100.00
41264;BME280;26998;48.714;9.414;2023-03-24T10:27:56;98311.06;;;15.34;100.00
41264;BME280;26998;48.714;9.414;2023-03-24T10:30:30;98267.75;;;15.36;100.00
41264;BME280;26998;48.714;9.414;2023-03-24T10:32:58;98271.50;;;15.35;100.00
41264;BME280;26998;48.714;9.414;2023-03-24T10:35:28;98262.00;;;15.32;100.00
41264;BME280;26998;48.714;9.414;2023-03-24T10:37:58;98249.69;;;15.19;100.00
41264;BME280;26998;48.714;9.414;2023-03-24T10:40:30;98215.50;;;15.20;100.00
41264;BME280;26998;48.714;9.414;2023-03-24T10:43:00;98240.75;;;15.31;100.00
41264;BME280;26998;48.714;9.414;2023-03-24T10:45:36;98225.66;;;15.30;100.00
41264;BME280;26998;48.714;9.414;2023-03-24T10:48:04;98206.28;;;15.16;100.00
41264;BME280;26998;48.714;9.414;2023-03-24T10:50:32;98225.66;;;15.30;100.00
41264;BME280;26998;48.714;9.414;2023-03-24T10:52:58;98202.38;;;15.40;100.00
41264;BME280;26998;48.714;9.414;2023-03-24T10:55:30;98190.72;;;15.52;100.00
41264;BME280;26998;48.714;9.414;2023-03-24T10:58:00;98203.22;;;15.58;100.00
41264;BME280;26998;48.714;9.414;2023-03-24T11:00:29;98209.72;;;15.45;100.00
41264;BME280;26998;48.714;9.414;2023-03-24T11:03:03;98191.03;;;15.38;100.00
41264;BME280;26998;48.714;9.414;2023-03-24T11:05:35;98246.59;;;15.28;100.00
41264;BME280;26998;48.714;9.414;2023-03-24T11:10:48;98236.16;;;15.31;100.00
41264;BME280;26998;48.714;9.414;2023-03-24T11:13:40;98216.34;;;15.37;100.00
41264;BME280;26998;48.714;9.414;2023-03-24T11:16:13;98175.63;;;15.34;100.00
41264;BME280;26998;48.714;9.414;2023-03-24T11:19:01;98151.63;;;15.49;100.00
41264;BME280;26998;48.714;9.414;2023-03-24T11:21:30;98130.16;;;15.71;100.00
41264;BME280;26998;48.714;9.414;2023-03-24T11:24:00;98123.66;;;15.89;100.00
41264;BME280;26998;48.714;9.414;2023-03-24T11:26:30;98060.19;;;15.98;100.00
41264;BME280;26998;48.714;9.414;2023-03-24T11:29:03;98062.50;;;16.16;100.00
41264;BME280;26998;48.714;9.414;2023-03-24T11:31:32;98035.03;;;16.47;100.00
41264;BME280;26998;48.714;9.414;2023-03-24T11:34:02;98016.78;;;16.00;100.00
41264;BME280;26998;48.714;9.414;2023-03-24T11:36:40;98027.63;;;16.32;100.00
41264;BME280;26998;48.714;9.414;2023-03-24T11:41:58;97978.84;;;16.33;100.00
41264;BME280;26998;48.714;9.414;2023-03-24T11:44:25;97998.44;;;16.56;100.00
41264;BME280;26998;48.714;9.414;2023-03-24T11:46:57;97993.47;;;16.75;100.00
41264;BME280;26998;48.714;9.414;2023-03-24T11:49:29;97986.19;;;16.75;100.00
41264;BME280;26998;48.714;9.414;2023-03-24T11:51:57;97995.66;;;16.46;100.00
41264;BME280;26998;48.714;9.414;2023-03-24T11:54:31;97988.91;;;16.43;100.00
41264;BME280;26998;48.714;9.414;2023-03-24T11:57:08;97996.53;;;16.56;100.00
41264;BME280;26998;48.714;9.414;2023-03-24T11:59:52;97970.25;;;16.42;100.00
41264;BME280;26998;48.714;9.414;2023-03-24T12:05:25;97984.09;;;15.91;100.00
41264;BME280;26998;48.714;9.414;2023-03-24T12:08:00;98005.78;;;15.79;100.00
41264;BME280;26998;48.714;9.414;2023-03-24T12:10:37;98015.00;;;15.61;100.00
41264;BME280;26998;48.714;9.414;2023-03-24T12:13:15;98012.72;;;15.70;100.00
41264;BME280;26998;48.714;9.414;2023-03-24T12:18:57;97982.53;;;15.73;100.00
41264;BME280;26998;48.714;9.414;2023-03-24T12:27:04;97972.59;;;15.74;100.00
41264;BME280;26998;48.714;9.414;2023-03-24T12:29:41;97984.44;;;15.73;100.00
41264;BME280;26998;48.714;9.414;2023-03-24T12:32:17;97964.63;;;15.84;100.00
41264;BME280;26998;48.714;9.414;2023-03-24T12:40:53;97986.78;;;15.47;100.00
41264;BME280;26998;48.714;9.414;2023-03-24T12:44:00;97995.94;;;15.24;100.00
41264;BME280;26998;48.714;9.414;2023-03-24T12:47:05;98001.25;;;15.19;100.00
41264;BME280;26998;48.714;9.414;2023-03-24T12:52:40;97979.03;;;15.29;100.00
41264;BME280;26998;48.714;9.414;2023-03-24T12:55:34;97975.78;;;15.27;100.00
41264;BME280;26998;48.714;9.414;2023-03-24T13:01:02;97974.44;;;15.29;100.00
41264;BME280;26998;48.714;9.414;2023-03-24T13:03:45;97973.25;;;15.20;100.00
41264;BME280;26998;48.714;9.414;2023-03-24T13:06:22;97957.78;;;15.10;100.00
41264;BME280;26998;48.714;9.414;2023-03-24T13:09:04;97938.75;;;15.17;100.00
41264;BME280;26998;48.714;9.414;2023-03-24T13:11:39;97942.34;;;15.22;100.00
41264;BME280;26998;48.714;9.414;2023-03-24T13:14:13;97934.72;;;15.14;100.00
41264;BME280;26998;48.714;9.414;2023-03-24T13:16:44;97942.72;;;15.09;100.00
41264;BME280;26998;48.714;9.414;2023-03-24T13:19:22;97935.41;;;15.05;100.00
41264;BME280;26998;48.714;9.414;2023-03-24T13:21:51;97919.75;;;15.01;100.00
41264;BME280;26998;48.714;9.414;2023-03-24T13:24:19;97938.50;;;14.96;100.00
41264;BME280;26998;48.714;9.414;2023-03-24T13:26:56;97929.56;;;14.91;100.00
41264;BME280;26998;48.714;9.414;2023-03-24T13:29:55;97925.28;;;14.95;100.00
41264;BME280;26998;48.714;9.414;2023-03-24T13:32:31;97923.63;;;15.11;100.00
41264;BME280;26998;48.714;9.414;2023-03-24T13:37:51;97928.69;;;15.07;100.00
41264;BME280;26998;48.714;9.414;2023-03-24T13:40:25;97921.19;;;15.09;100.00
41264;BME280;26998;48.714;9.414;2023-03-24T13:42:54;97942.28;;;14.95;100.00
41264;BME280;26998;48.714;9.414;2023-03-24T13:50:51;97932.53;;;14.72;100.00
41264;BME280;26998;48.714;9.414;2023-03-24T13:53:27;97918.44;;;14.65;100.00
41264;BME280;26998;48.714;9.414;2023-03-24T13:55:56;97927.00;;;14.62;100.00
41264;BME280;26998;48.714;9.414;2023-03-24T13:58:25;97944.13;;;14.56;100.00
41264;BME280;26998;48.714;9.414;2023-03-24T14:03:40;97947.75;;;14.50;100.00
41264;BME280;26998;48.714;9.414;2023-03-24T14:06:08;97948.25;;;14.47;100.00
41264;BME280;26998;48.714;9.414;2023-03-24T14:08:54;97954.88;;;14.39;100.00
41264;BME280;26998;48.714;9.414;2023-03-24T14:14:29;97932.28;;;14.40;100.00
41264;BME280;26998;48.714;9.414;2023-03-24T14:19:35;97931.47;;;14.40;100.00
41264;BME280;26998;48.714;9.414;2023-03-24T14:22:31;97933.59;;;14.38;100.00
41264;BME280;26998;48.714;9.414;2023-03-24T14:25:19;97934.34;;;14.33;100.00
41264;BME280;26998;48.714;9.414;2023-03-24T14:27:53;97934.56;;;14.31;100.00
41264;BME280;26998;48.714;9.414;2023-03-24T14:30:26;97950.47;;;14.33;100.00
41264;BME280;26998;48.714;9.414;2023-03-24T14:32:55;97941.81;;;14.31;100.00
41264;BME280;26998;48.714;9.414;2023-03-24T14:35:42;97945.09;;;14.33;100.00
41264;BME280;26998;48.714;9.414;2023-03-24T14:40:44;97964.63;;;14.28;100.00